createdAt,value
2017-09-15T00:00:43.118Z,13.1
2017-09-15T00:01:45.048Z,13.1
2017-09-15T00:02:46.893Z,13.1
2017-09-15T00:03:48.787Z,13.0
2017-09-15T00:04:50.746Z,13.0
2017-09-15T00:05:52.437Z,13.0
2017-09-15T00:06:54.214Z,13.0
2017-09-15T00:07:55.951Z,13.1
2017-09-15T00:08:57.675Z,13.1
2017-09-15T00:09:59.368Z,13.1
2017-09-15T00:11:01.095Z,13.1
2017-09-15T00:12:02.812Z,13.1
2017-09-15T00:13:04.444Z,13.0
2017-09-15T00:14:06.117Z,13.0
2017-09-15T00:15:07.806Z,13.0
2017-09-15T00:16:09.425Z,13.1
2017-09-15T00:17:11.057Z,13.0
2017-09-15T00:18:12.696Z,13.0
2017-09-15T00:19:14.362Z,13.0
2017-09-15T00:20:16.002Z,13.1
2017-09-15T00:21:17.642Z,13.1
2017-09-15T00:22:19.267Z,13.0
2017-09-15T00:23:20.944Z,13.2
2017-09-15T00:24:22.655Z,13.1
2017-09-15T00:25:24.327Z,13.1
2017-09-15T00:26:26.015Z,13.1
2017-09-15T00:27:27.700Z,13.1
2017-09-15T00:28:29.325Z,13.1
2017-09-15T00:29:30.938Z,13.1
2017-09-15T00:30:32.601Z,13.2
2017-09-15T00:31:34.260Z,13.1
2017-09-15T00:32:35.935Z,13.0
2017-09-15T00:33:37.568Z,13.1
2017-09-15T00:34:39.216Z,13.1
2017-09-15T00:35:40.950Z,13.1
2017-09-15T00:36:42.659Z,13.0
2017-09-15T00:37:44.329Z,13.0
2017-09-15T00:38:45.959Z,13.0
2017-09-15T00:39:47.595Z,13.1
2017-09-15T00:40:49.215Z,13.0
2017-09-15T00:41:50.848Z,13.0
2017-09-15T00:42:52.518Z,13.1
2017-09-15T00:43:54.204Z,13.0
2017-09-15T00:44:55.876Z,13.0
2017-09-15T00:45:57.575Z,13.0
2017-09-15T00:47:00.078Z,12.9
2017-09-15T00:48:01.754Z,13.0
2017-09-15T00:49:03.380Z,13.0
2017-09-15T00:50:05.061Z,13.0
2017-09-15T00:51:06.817Z,13.0
2017-09-15T00:52:08.517Z,13.0
2017-09-15T00:53:10.132Z,13.0
2017-09-15T00:54:11.787Z,13.0
2017-09-15T00:55:13.498Z,12.9
2017-09-15T00:56:15.103Z,13.0
2017-09-15T00:57:16.667Z,13.0
2017-09-15T00:58:18.301Z,13.0
2017-09-15T00:59:20.014Z,12.9
2017-09-15T01:00:21.701Z,13.0
2017-09-15T01:01:23.410Z,13.0
2017-09-15T01:02:25.096Z,13.0
2017-09-15T01:03:26.788Z,13.0
2017-09-15T01:04:28.684Z,13.0
2017-09-15T01:05:30.617Z,13.0
2017-09-15T01:06:32.594Z,13.0
2017-09-15T01:07:34.502Z,13.0
2017-09-15T01:08:36.252Z,12.9
2017-09-15T01:09:37.963Z,12.9
2017-09-15T01:10:39.630Z,12.9
2017-09-15T01:11:41.376Z,12.8
2017-09-15T01:12:43.029Z,12.8
2017-09-15T01:13:44.696Z,12.9
2017-09-15T01:14:46.282Z,12.8
2017-09-15T01:15:47.958Z,12.8
2017-09-15T01:16:49.635Z,12.8
2017-09-15T01:17:51.284Z,12.8
2017-09-15T01:18:52.882Z,12.7
2017-09-15T01:19:54.543Z,12.8
2017-09-15T01:20:56.199Z,12.8
2017-09-15T01:21:57.879Z,12.8
2017-09-15T01:22:59.534Z,12.8
2017-09-15T01:24:01.173Z,12.8
2017-09-15T01:25:02.791Z,12.8
2017-09-15T01:26:04.420Z,12.8
2017-09-15T01:27:06.178Z,12.8
2017-09-15T01:28:07.894Z,12.7
2017-09-15T01:29:09.643Z,12.7
2017-09-15T01:30:11.415Z,12.7
2017-09-15T01:31:13.141Z,12.7
2017-09-15T01:32:14.947Z,12.6
2017-09-15T01:33:16.599Z,12.6
2017-09-15T01:34:18.299Z,12.7
2017-09-15T01:35:19.929Z,12.7
2017-09-15T01:36:21.533Z,12.7
2017-09-15T01:37:23.185Z,12.6
2017-09-15T01:38:24.807Z,12.6
2017-09-15T01:39:26.431Z,12.6
2017-09-15T01:40:28.094Z,12.7
2017-09-15T01:41:29.800Z,12.6
2017-09-15T01:42:31.467Z,12.7
2017-09-15T01:43:33.118Z,12.7
2017-09-15T01:44:34.723Z,12.7
2017-09-15T01:45:36.374Z,12.6
2017-09-15T01:46:37.995Z,12.7
2017-09-15T01:47:39.616Z,12.6
2017-09-15T01:48:41.215Z,12.5
2017-09-15T01:49:42.860Z,12.6
2017-09-15T01:50:44.519Z,12.6
2017-09-15T01:51:46.130Z,12.7
2017-09-15T01:52:47.753Z,12.6
2017-09-15T01:53:49.390Z,12.6
2017-09-15T01:54:51.018Z,12.6
2017-09-15T01:55:52.703Z,12.6
2017-09-15T01:56:54.316Z,12.6
2017-09-15T01:57:55.945Z,12.7
2017-09-15T01:58:57.645Z,12.7
2017-09-15T01:59:59.316Z,12.6
2017-09-15T02:01:00.977Z,12.7
2017-09-15T02:02:02.611Z,12.6
2017-09-15T02:03:04.298Z,12.7
2017-09-15T02:04:05.933Z,12.7
2017-09-15T02:05:07.589Z,12.7
2017-09-15T02:06:09.270Z,12.6
2017-09-15T02:07:10.924Z,12.6
2017-09-15T02:08:12.522Z,12.5
2017-09-15T02:09:14.098Z,12.6
2017-09-15T02:10:15.733Z,12.6
2017-09-15T02:11:17.503Z,12.6
2017-09-15T02:12:19.254Z,12.6
2017-09-15T02:13:20.880Z,12.4
2017-09-15T02:14:22.545Z,12.6
2017-09-15T02:15:24.207Z,12.4
2017-09-15T02:16:25.931Z,12.6
2017-09-15T02:17:27.669Z,12.4
2017-09-15T02:18:29.377Z,12.6
2017-09-15T02:19:31.059Z,12.6
2017-09-15T02:20:32.723Z,12.6
2017-09-15T02:21:34.371Z,12.5
2017-09-15T02:22:36.055Z,12.6
2017-09-15T02:23:37.712Z,12.4
2017-09-15T02:24:39.357Z,12.6
2017-09-15T02:25:40.990Z,12.5
2017-09-15T02:26:42.579Z,12.6
2017-09-15T02:27:44.268Z,12.4
2017-09-15T02:28:45.874Z,12.6
2017-09-15T02:29:47.499Z,12.5
2017-09-15T02:30:49.175Z,12.4
2017-09-15T02:31:50.828Z,12.4
2017-09-15T02:32:52.467Z,12.5
2017-09-15T02:33:54.130Z,12.5
2017-09-15T02:34:55.762Z,12.4
2017-09-15T02:35:57.441Z,12.5
2017-09-15T02:36:59.159Z,12.4
2017-09-15T02:38:00.807Z,12.5
2017-09-15T02:39:02.437Z,12.4
2017-09-15T02:40:04.022Z,12.4
2017-09-15T02:41:05.631Z,12.5
2017-09-15T02:42:07.201Z,12.5
2017-09-15T02:43:08.840Z,12.5
2017-09-15T02:44:10.447Z,12.4
2017-09-15T02:45:12.121Z,12.6
2017-09-15T02:46:13.744Z,12.5
2017-09-15T02:47:15.405Z,12.5
2017-09-15T02:48:17.146Z,12.4
2017-09-15T02:49:18.788Z,12.5
2017-09-15T02:50:20.419Z,12.5
2017-09-15T02:51:22.007Z,12.4
2017-09-15T02:52:23.642Z,12.6
2017-09-15T02:53:25.273Z,12.6
2017-09-15T02:54:26.928Z,12.5
2017-09-15T02:55:28.554Z,12.4
2017-09-15T02:56:30.188Z,12.5
2017-09-15T02:57:31.799Z,12.4
2017-09-15T02:58:33.439Z,12.3
2017-09-15T02:59:35.054Z,12.3
2017-09-15T03:00:36.635Z,12.3
2017-09-15T03:01:38.319Z,12.3
2017-09-15T03:02:40.061Z,12.3
2017-09-15T03:03:41.828Z,12.3
2017-09-15T03:04:43.491Z,12.3
2017-09-15T03:05:45.072Z,12.3
2017-09-15T03:06:46.729Z,12.3
2017-09-15T03:07:48.412Z,12.3
2017-09-15T03:08:50.121Z,12.3
2017-09-15T03:09:51.904Z,12.3
2017-09-15T03:10:53.577Z,12.3
2017-09-15T03:11:55.248Z,12.3
2017-09-15T03:12:56.899Z,12.3
2017-09-15T03:13:58.537Z,12.4
2017-09-15T03:15:00.261Z,12.3
2017-09-15T03:16:01.931Z,12.3
2017-09-15T03:17:03.606Z,12.3
2017-09-15T03:18:05.228Z,12.3
2017-09-15T03:19:06.929Z,12.3
2017-09-15T03:20:08.675Z,12.4
2017-09-15T03:21:10.296Z,12.4
2017-09-15T03:22:11.943Z,12.3
2017-09-15T03:23:13.698Z,12.3
2017-09-15T03:24:15.325Z,12.3
2017-09-15T03:25:16.983Z,12.3
2017-09-15T03:26:19.331Z,12.4
2017-09-15T03:27:21.087Z,12.3
2017-09-15T03:28:22.814Z,12.3
2017-09-15T03:29:25.144Z,12.3
2017-09-15T03:30:26.886Z,12.3
2017-09-15T03:31:28.609Z,12.4
2017-09-15T03:32:30.261Z,12.3
2017-09-15T03:33:31.890Z,12.3
2017-09-15T03:34:36.416Z,12.3
2017-09-15T03:35:38.029Z,12.3
2017-09-15T03:36:39.711Z,12.3
2017-09-15T03:37:41.466Z,12.3
2017-09-15T03:38:43.089Z,12.4
2017-09-15T03:39:44.745Z,12.4
2017-09-15T03:40:46.436Z,12.4
2017-09-15T03:41:48.131Z,12.5
2017-09-15T03:42:49.852Z,12.3
2017-09-15T03:43:51.564Z,12.4
2017-09-15T03:44:53.224Z,12.4
2017-09-15T03:45:55.485Z,12.4
2017-09-15T03:46:57.202Z,12.5
2017-09-15T03:47:58.841Z,12.5
2017-09-15T03:49:00.477Z,12.5
2017-09-15T03:50:02.160Z,12.5
2017-09-15T03:51:03.863Z,12.5
2017-09-15T03:52:05.493Z,12.5
2017-09-15T03:53:07.170Z,12.4
2017-09-15T03:54:08.825Z,12.5
2017-09-15T03:55:10.469Z,12.5
2017-09-15T03:56:12.657Z,12.5
2017-09-15T03:57:14.345Z,12.5
2017-09-15T03:58:16.049Z,12.5
2017-09-15T03:59:17.702Z,12.5
2017-09-15T04:00:19.342Z,12.5
2017-09-15T04:01:20.959Z,12.6
2017-09-15T04:02:22.981Z,12.6
2017-09-15T04:03:24.596Z,12.6
2017-09-15T04:04:26.225Z,12.6
2017-09-15T04:05:27.784Z,12.7
2017-09-15T04:06:29.445Z,12.7
2017-09-15T04:07:31.033Z,12.7
2017-09-15T04:08:32.792Z,12.7
2017-09-15T04:09:34.469Z,12.7
2017-09-15T04:10:36.079Z,12.7
2017-09-15T04:11:37.641Z,12.6
2017-09-15T04:12:39.510Z,12.6
2017-09-15T04:13:40.958Z,12.7
2017-09-15T04:14:42.384Z,12.6
2017-09-15T04:15:43.905Z,12.6
2017-09-15T04:16:45.476Z,12.5
2017-09-15T04:17:47.001Z,12.7
2017-09-15T04:18:48.513Z,12.6
2017-09-15T04:19:50.052Z,12.7
2017-09-15T04:20:51.615Z,12.7
2017-09-15T04:21:53.166Z,12.7
2017-09-15T04:22:54.655Z,12.6
2017-09-15T04:23:56.170Z,12.7
2017-09-15T04:24:57.636Z,12.7
2017-09-15T04:25:59.126Z,12.6
2017-09-15T04:27:00.672Z,12.6
2017-09-15T04:28:02.213Z,12.6
2017-09-15T04:29:03.772Z,12.6
2017-09-15T04:30:05.438Z,12.5
2017-09-15T04:31:07.069Z,12.6
2017-09-15T04:32:08.730Z,12.5
2017-09-15T04:33:10.353Z,12.6
2017-09-15T04:34:12.008Z,12.5
2017-09-15T04:35:13.549Z,12.5
2017-09-15T04:36:15.043Z,12.6
2017-09-15T04:37:16.543Z,12.5
2017-09-15T04:38:18.035Z,12.6
2017-09-15T04:39:19.574Z,12.7
2017-09-15T04:40:21.058Z,12.7
2017-09-15T04:41:22.563Z,12.7
2017-09-15T04:42:24.074Z,12.6
2017-09-15T04:43:25.520Z,12.7
2017-09-15T04:44:27.070Z,12.7
2017-09-15T04:45:28.527Z,12.6
2017-09-15T04:46:30.036Z,12.7
2017-09-15T04:47:31.507Z,12.7
2017-09-15T04:48:33.007Z,12.7
2017-09-15T04:49:34.522Z,12.7
2017-09-15T04:50:36.095Z,12.7
2017-09-15T04:51:37.649Z,12.7
2017-09-15T04:52:39.170Z,12.7
2017-09-15T04:53:40.798Z,12.8
2017-09-15T04:54:42.375Z,12.8
2017-09-15T04:55:43.923Z,12.8
2017-09-15T04:56:45.424Z,12.8
2017-09-15T04:57:46.949Z,12.8
2017-09-15T04:58:48.528Z,12.8
2017-09-15T04:59:50.114Z,12.8
2017-09-15T05:00:51.698Z,12.8
2017-09-15T05:01:53.290Z,12.9
2017-09-15T05:02:54.892Z,12.8
2017-09-15T05:03:56.477Z,12.8
2017-09-15T05:04:58.036Z,12.8
2017-09-15T05:05:59.680Z,12.7
2017-09-15T05:07:01.332Z,12.7
2017-09-15T05:08:02.831Z,12.8
2017-09-15T05:09:04.478Z,12.8
2017-09-15T05:10:06.048Z,12.8
2017-09-15T05:11:07.648Z,12.9
2017-09-15T05:12:09.241Z,12.9
2017-09-15T05:13:10.861Z,12.9
2017-09-15T05:14:12.517Z,13.0
2017-09-15T05:15:14.303Z,12.9
2017-09-15T05:16:15.820Z,12.9
2017-09-15T05:17:17.340Z,12.9
2017-09-15T05:18:18.966Z,13.0
2017-09-15T05:19:20.475Z,12.9
2017-09-15T05:20:22.092Z,13.0
2017-09-15T05:21:23.635Z,12.9
2017-09-15T05:22:25.077Z,13.0
2017-09-15T05:23:26.549Z,13.0
2017-09-15T05:24:28.007Z,13.0
2017-09-15T05:25:29.572Z,13.0
2017-09-15T05:26:31.220Z,13.0
2017-09-15T05:27:32.927Z,13.0
2017-09-15T05:28:34.467Z,13.1
2017-09-15T05:29:35.992Z,13.1
2017-09-15T05:30:37.626Z,13.1
2017-09-15T05:31:39.343Z,13.1
2017-09-15T05:32:40.915Z,13.0
2017-09-15T05:33:42.571Z,13.1
2017-09-15T05:34:44.263Z,13.0
2017-09-15T05:35:45.916Z,13.0
2017-09-15T05:36:47.459Z,13.0
2017-09-15T05:37:49.156Z,13.0
2017-09-15T05:38:50.662Z,13.0
2017-09-15T05:39:52.157Z,13.1
2017-09-15T05:40:53.617Z,13.1
2017-09-15T05:41:55.199Z,13.2
2017-09-15T05:42:56.713Z,13.1
2017-09-15T05:43:58.325Z,13.2
2017-09-15T05:44:59.921Z,13.2
2017-09-15T05:46:01.518Z,13.1
2017-09-15T05:47:03.080Z,13.0
2017-09-15T05:48:04.627Z,13.0
2017-09-15T05:49:06.238Z,13.1
2017-09-15T05:50:07.783Z,13.1
2017-09-15T05:51:09.324Z,13.1
2017-09-15T05:52:10.939Z,13.1
2017-09-15T05:53:12.476Z,13.1
2017-09-15T05:54:14.056Z,13.2
2017-09-15T05:55:15.673Z,13.1
2017-09-15T05:56:17.277Z,13.1
2017-09-15T05:57:18.882Z,13.2
2017-09-15T05:58:20.693Z,13.1
2017-09-15T05:59:22.248Z,13.2
2017-09-15T06:00:23.834Z,13.2
2017-09-15T06:01:25.398Z,13.2
2017-09-15T06:02:27.004Z,13.2
2017-09-15T06:03:28.596Z,13.2
2017-09-15T06:04:30.186Z,13.1
2017-09-15T06:05:31.833Z,13.1
2017-09-15T06:06:33.760Z,13.2
2017-09-15T06:07:35.713Z,13.2
2017-09-15T06:08:37.287Z,13.2
2017-09-15T06:09:38.881Z,13.1
2017-09-15T06:10:40.430Z,13.2
2017-09-15T06:11:42.019Z,13.2
2017-09-15T06:12:43.573Z,13.3
2017-09-15T06:13:45.192Z,13.4
2017-09-15T06:14:46.812Z,13.3
2017-09-15T06:15:48.397Z,13.3
2017-09-15T06:16:49.992Z,13.3
2017-09-15T06:17:51.569Z,13.3
2017-09-15T06:18:53.164Z,13.4
2017-09-15T06:19:54.757Z,13.4
2017-09-15T06:20:56.392Z,13.4
2017-09-15T06:21:58.003Z,13.3
2017-09-15T06:22:59.653Z,13.4
2017-09-15T06:24:01.236Z,13.3
2017-09-15T06:25:02.872Z,13.4
2017-09-15T06:26:04.465Z,13.4
2017-09-15T06:27:06.052Z,13.5
2017-09-15T06:28:07.662Z,13.5
2017-09-15T06:29:09.240Z,13.5
2017-09-15T06:30:10.867Z,13.5
2017-09-15T06:31:12.427Z,13.5
2017-09-15T06:32:13.974Z,13.4
2017-09-15T06:33:15.539Z,13.5
2017-09-15T06:34:17.113Z,13.5
2017-09-15T06:35:18.793Z,13.5
2017-09-15T06:36:20.424Z,13.5
2017-09-15T06:37:22.010Z,13.5
2017-09-15T06:38:23.626Z,13.5
2017-09-15T06:39:25.250Z,13.6
2017-09-15T06:40:26.845Z,13.6
2017-09-15T06:41:28.500Z,13.6
2017-09-15T06:42:29.999Z,13.5
2017-09-15T06:43:31.616Z,13.6
2017-09-15T06:44:33.118Z,13.6
2017-09-15T06:45:34.714Z,13.6
2017-09-15T06:46:36.660Z,13.5
2017-09-15T06:47:38.260Z,13.6
2017-09-15T06:48:39.852Z,13.5
2017-09-15T06:49:41.477Z,13.6
2017-09-15T06:50:43.086Z,13.6
2017-09-15T06:51:44.717Z,13.6
2017-09-15T06:52:46.382Z,13.5
2017-09-15T06:53:48.036Z,13.6
2017-09-15T06:54:49.705Z,13.5
2017-09-15T06:55:51.305Z,13.5
2017-09-15T06:56:52.858Z,13.6
2017-09-15T06:57:54.406Z,13.6
2017-09-15T06:58:56.078Z,13.6
2017-09-15T06:59:57.715Z,13.6
2017-09-15T07:00:59.252Z,13.6
2017-09-15T07:02:00.809Z,13.6
2017-09-15T07:03:02.371Z,13.5
2017-09-15T07:04:04.020Z,13.6
2017-09-15T07:05:05.593Z,13.6
2017-09-15T07:06:07.050Z,13.5
2017-09-15T07:07:08.600Z,13.5
2017-09-15T07:08:10.122Z,13.6
2017-09-15T07:09:11.751Z,13.7
2017-09-15T07:10:13.353Z,13.6
2017-09-15T07:11:14.903Z,13.6
2017-09-15T07:12:16.494Z,13.6
2017-09-15T07:13:17.949Z,13.6
2017-09-15T07:14:19.556Z,13.5
2017-09-15T07:15:21.311Z,13.6
2017-09-15T07:16:22.903Z,13.6
2017-09-15T07:17:24.590Z,13.6
2017-09-15T07:18:26.175Z,13.7
2017-09-15T07:19:27.765Z,13.6
2017-09-15T07:20:29.372Z,13.7
2017-09-15T07:21:30.991Z,13.6
2017-09-15T07:22:32.583Z,13.6
2017-09-15T07:23:48.423Z,13.6
2017-09-15T07:24:50.638Z,13.6
2017-09-15T07:26:13.047Z,13.6
2017-09-15T07:27:14.644Z,13.7
2017-09-15T07:28:16.262Z,13.7
2017-09-15T07:29:17.856Z,13.8
2017-09-15T07:30:19.693Z,13.7
2017-09-15T07:31:21.280Z,13.8
2017-09-15T07:32:22.924Z,13.7
2017-09-15T07:33:24.588Z,13.7
2017-09-15T07:34:26.125Z,13.8
2017-09-15T07:35:27.692Z,13.8
2017-09-15T07:36:29.259Z,13.8
2017-09-15T07:37:30.826Z,13.8
2017-09-15T07:38:32.419Z,13.8
2017-09-15T07:39:34.003Z,13.8
2017-09-15T07:40:35.713Z,13.8
2017-09-15T07:41:37.305Z,13.8
2017-09-15T07:42:39.000Z,13.8
2017-09-15T07:43:40.547Z,13.9
2017-09-15T07:44:42.711Z,13.8
2017-09-15T07:45:44.271Z,13.9
2017-09-15T07:46:45.862Z,13.9
2017-09-15T07:47:47.473Z,13.9
2017-09-15T07:48:49.061Z,14.0
2017-09-15T07:49:50.611Z,13.9
2017-09-15T07:50:52.181Z,14.0
2017-09-15T07:51:53.696Z,14.0
2017-09-15T07:52:55.351Z,14.0
2017-09-15T07:53:56.932Z,14.0
2017-09-15T07:54:58.561Z,14.0
2017-09-15T07:56:00.158Z,13.9
2017-09-15T07:57:01.770Z,14.0
2017-09-15T07:58:03.409Z,14.1
2017-09-15T07:59:05.054Z,14.0
2017-09-15T08:00:06.653Z,14.0
2017-09-15T08:01:08.212Z,14.0
2017-09-15T08:02:09.776Z,14.0
2017-09-15T08:03:11.438Z,13.9
2017-09-15T08:04:13.037Z,14.0
2017-09-15T08:05:14.674Z,13.9
2017-09-15T08:06:16.246Z,14.0
2017-09-15T08:07:17.812Z,14.0
2017-09-15T08:08:19.476Z,14.0
2017-09-15T08:09:21.109Z,14.0
2017-09-15T08:10:22.687Z,14.0
2017-09-15T08:11:24.256Z,14.0
2017-09-15T08:12:25.860Z,14.0
2017-09-15T08:13:27.438Z,14.1
2017-09-15T08:14:29.011Z,14.1
2017-09-15T08:15:30.621Z,14.1
2017-09-15T08:16:32.210Z,14.1
2017-09-15T08:17:33.813Z,14.2
2017-09-15T08:18:35.466Z,14.2
2017-09-15T08:19:37.094Z,14.1
2017-09-15T08:20:38.671Z,14.2
2017-09-15T08:21:40.310Z,14.1
2017-09-15T08:22:41.879Z,14.1
2017-09-15T08:23:43.505Z,14.1
2017-09-15T08:24:45.155Z,14.1
2017-09-15T08:25:46.719Z,14.1
2017-09-15T08:26:48.431Z,14.2
2017-09-15T08:27:50.000Z,14.1
2017-09-15T08:28:51.590Z,14.1
2017-09-15T08:29:53.198Z,14.2
2017-09-15T08:30:54.808Z,14.3
2017-09-15T08:31:56.461Z,14.3
2017-09-15T08:32:58.055Z,14.3
2017-09-15T08:33:59.781Z,14.3
2017-09-15T08:35:01.356Z,14.2
2017-09-15T08:36:02.918Z,14.3
2017-09-15T08:37:04.488Z,14.2
2017-09-15T08:38:06.097Z,14.3
2017-09-15T08:39:07.645Z,14.3
2017-09-15T08:40:09.161Z,14.4
2017-09-15T08:41:10.774Z,14.3
2017-09-15T08:42:12.385Z,14.3
2017-09-15T08:43:14.001Z,14.4
2017-09-15T08:44:15.740Z,14.4
2017-09-15T08:45:17.410Z,14.3
2017-09-15T08:46:18.994Z,14.4
2017-09-15T08:47:20.538Z,14.4
2017-09-15T08:48:22.169Z,14.5
2017-09-15T08:49:23.791Z,14.5
2017-09-15T08:50:25.338Z,14.6
2017-09-15T08:51:26.921Z,14.6
2017-09-15T08:52:28.547Z,14.7
2017-09-15T08:53:30.282Z,14.7
2017-09-15T08:54:31.859Z,14.9
2017-09-15T08:55:33.512Z,14.8
2017-09-15T08:56:35.063Z,14.9
2017-09-15T08:57:36.670Z,14.8
2017-09-15T08:58:38.307Z,14.9
2017-09-15T08:59:39.852Z,14.9
2017-09-15T09:00:41.418Z,14.9
2017-09-15T09:01:42.978Z,14.8
2017-09-15T09:02:44.588Z,14.9
2017-09-15T09:03:46.260Z,14.8
2017-09-15T09:04:47.840Z,14.9
2017-09-15T09:05:49.392Z,14.8
2017-09-15T09:06:50.949Z,14.9
2017-09-15T09:07:52.611Z,14.9
2017-09-15T09:08:54.210Z,14.9
2017-09-15T09:09:55.798Z,14.8
2017-09-15T09:10:57.447Z,14.9
2017-09-15T09:11:59.128Z,15.0
2017-09-15T09:13:00.757Z,14.9
2017-09-15T09:14:02.322Z,14.9
2017-09-15T09:15:03.909Z,14.9
2017-09-15T09:16:05.496Z,14.9
2017-09-15T09:17:07.128Z,14.9
2017-09-15T09:18:08.691Z,14.9
2017-09-15T09:19:10.229Z,15.1
2017-09-15T09:20:11.852Z,15.1
2017-09-15T09:21:13.400Z,15.1
2017-09-15T09:22:15.047Z,15.0
2017-09-15T09:23:16.637Z,15.1
2017-09-15T09:24:18.258Z,15.2
2017-09-15T09:25:19.883Z,15.2
2017-09-15T09:26:21.450Z,15.3
2017-09-15T09:27:23.009Z,15.2
2017-09-15T09:28:24.637Z,15.3
2017-09-15T09:29:26.257Z,15.3
2017-09-15T09:30:27.867Z,15.4
2017-09-15T09:31:29.428Z,15.3
2017-09-15T09:32:31.089Z,15.3
2017-09-15T09:33:32.736Z,15.3
2017-09-15T09:34:34.385Z,15.3
2017-09-15T09:35:36.004Z,15.4
2017-09-15T09:36:37.654Z,15.4
2017-09-15T09:37:39.249Z,15.5
2017-09-15T09:38:40.857Z,15.5
2017-09-15T09:39:42.452Z,15.5
2017-09-15T09:40:45.020Z,15.5
2017-09-15T09:41:46.679Z,15.6
2017-09-15T09:42:48.258Z,15.6
2017-09-15T09:43:49.830Z,15.6
2017-09-15T09:44:51.461Z,15.6
2017-09-15T09:45:53.067Z,15.7
2017-09-15T09:46:54.631Z,15.7
2017-09-15T09:47:56.295Z,15.8
2017-09-15T09:48:57.908Z,15.9
2017-09-15T09:49:59.469Z,15.9
2017-09-15T09:51:01.073Z,16.0
2017-09-15T09:52:02.731Z,16.0
2017-09-15T09:53:04.404Z,16.1
2017-09-15T09:54:06.053Z,16.2
2017-09-15T09:55:07.616Z,16.1
2017-09-15T09:56:09.195Z,16.2
2017-09-15T09:57:10.822Z,16.2
2017-09-15T09:58:12.422Z,16.1
2017-09-15T09:59:14.067Z,16.2
2017-09-15T10:00:15.674Z,16.2
2017-09-15T10:01:17.275Z,16.1
2017-09-15T10:02:18.914Z,16.1
2017-09-15T10:03:20.441Z,16.0
2017-09-15T10:04:22.056Z,16.0
2017-09-15T10:05:23.715Z,16.1
2017-09-15T10:06:25.297Z,16.1
2017-09-15T10:07:26.877Z,16.1
2017-09-15T10:08:28.463Z,16.1
2017-09-15T10:09:30.082Z,16.1
2017-09-15T10:10:31.633Z,16.0
2017-09-15T10:11:33.408Z,16.2
2017-09-15T10:12:35.043Z,16.1
2017-09-15T10:13:36.869Z,16.1
2017-09-15T10:14:38.730Z,16.2
2017-09-15T10:15:40.418Z,16.1
2017-09-15T10:16:42.027Z,16.2
2017-09-15T10:17:43.683Z,16.2
2017-09-15T10:18:45.625Z,16.2
2017-09-15T10:19:50.064Z,16.3
2017-09-15T10:20:51.683Z,16.3
2017-09-15T10:21:53.349Z,16.4
2017-09-15T10:22:54.936Z,16.4
2017-09-15T10:23:56.514Z,16.5
2017-09-15T10:24:58.089Z,16.4
2017-09-15T10:25:59.860Z,16.4
2017-09-15T10:27:01.472Z,16.4
2017-09-15T10:28:03.056Z,16.4
2017-09-15T10:29:04.643Z,16.5
2017-09-15T10:30:06.265Z,16.6
2017-09-15T10:31:07.885Z,16.7
2017-09-15T10:32:09.457Z,16.7
2017-09-15T10:33:11.039Z,16.7
2017-09-15T10:34:12.611Z,16.8
2017-09-15T10:35:14.288Z,16.7
2017-09-15T10:36:15.874Z,16.7
2017-09-15T10:37:17.490Z,16.8
2017-09-15T10:38:19.136Z,16.9
2017-09-15T10:39:20.741Z,16.9
2017-09-15T10:40:22.268Z,17.0
2017-09-15T10:41:23.851Z,17.1
2017-09-15T10:42:25.431Z,17.2
2017-09-15T10:43:27.007Z,17.2
2017-09-15T10:44:28.600Z,17.2
2017-09-15T10:45:30.151Z,17.1
2017-09-15T10:46:32.279Z,17.1
2017-09-15T10:47:33.819Z,17.1
2017-09-15T10:48:35.600Z,17.0
2017-09-15T10:49:37.315Z,17.0
2017-09-15T10:50:38.846Z,17.0
2017-09-15T10:51:40.321Z,17.0
2017-09-15T10:52:41.785Z,17.0
2017-09-15T10:53:43.312Z,16.8
2017-09-15T10:54:44.817Z,16.9
2017-09-15T10:55:46.373Z,16.7
2017-09-15T10:56:48.615Z,16.7
2017-09-15T10:57:50.171Z,16.6
2017-09-15T10:58:51.781Z,16.4
2017-09-15T10:59:53.710Z,16.5
2017-09-15T11:00:54.996Z,16.4
2017-09-15T11:01:56.542Z,16.4
2017-09-15T11:02:58.013Z,16.4
2017-09-15T11:03:59.523Z,16.3
2017-09-15T11:05:01.061Z,16.3
2017-09-15T11:06:02.651Z,16.2
2017-09-15T11:07:04.233Z,16.2
2017-09-15T11:08:05.761Z,16.2
2017-09-15T11:09:07.249Z,16.1
2017-09-15T11:10:08.759Z,16.1
2017-09-15T11:11:10.302Z,16.0
2017-09-15T11:12:11.813Z,16.0
2017-09-15T11:13:13.330Z,15.9
2017-09-15T11:14:14.870Z,16.0
2017-09-15T11:15:17.222Z,15.8
2017-09-15T11:16:18.758Z,15.8
2017-09-15T11:17:20.294Z,15.8
2017-09-15T11:18:21.785Z,15.8
2017-09-15T11:19:23.320Z,15.9
2017-09-15T11:20:24.811Z,15.8
2017-09-15T11:21:26.344Z,15.8
2017-09-15T11:22:27.862Z,15.8
2017-09-15T11:23:29.413Z,15.7
2017-09-15T11:24:30.905Z,15.7
2017-09-15T11:25:32.414Z,15.8
2017-09-15T11:26:33.945Z,15.7
2017-09-15T11:27:36.921Z,15.7
2017-09-15T11:28:38.425Z,15.7
2017-09-15T11:29:39.935Z,15.7
2017-09-15T11:30:41.451Z,15.8
2017-09-15T11:31:42.984Z,15.7
2017-09-15T11:32:44.480Z,15.6
2017-09-15T11:33:46.003Z,15.6
2017-09-15T11:34:47.514Z,15.8
2017-09-15T11:35:49.024Z,15.8
2017-09-15T11:36:50.553Z,15.7
2017-09-15T11:37:52.084Z,15.8
2017-09-15T11:38:53.601Z,15.7
2017-09-15T11:39:55.096Z,15.7
2017-09-15T11:40:56.630Z,15.6
2017-09-15T11:41:58.180Z,15.7
2017-09-15T11:42:59.692Z,15.8
2017-09-15T11:44:01.369Z,15.7
2017-09-15T11:45:02.921Z,15.7
2017-09-15T11:46:04.488Z,15.8
2017-09-15T11:47:05.989Z,15.8
2017-09-15T11:48:07.675Z,15.9
2017-09-15T11:49:09.190Z,15.8
2017-09-15T11:50:10.674Z,15.8
2017-09-15T11:51:12.196Z,15.9
2017-09-15T11:52:13.698Z,15.9
2017-09-15T11:53:15.201Z,15.9
2017-09-15T11:54:16.712Z,16.1
2017-09-15T11:55:18.187Z,16.0
2017-09-15T11:56:19.693Z,16.1
2017-09-15T11:57:21.213Z,16.1
2017-09-15T11:58:22.780Z,16.1
2017-09-15T11:59:24.428Z,16.1
2017-09-15T12:00:25.955Z,16.1
2017-09-15T12:01:27.525Z,16.1
2017-09-15T12:02:29.041Z,16.2
2017-09-15T12:03:30.579Z,16.3
2017-09-15T12:04:32.091Z,16.3
2017-09-15T12:05:33.601Z,16.4
2017-09-15T12:06:35.095Z,16.4
2017-09-15T12:07:36.604Z,16.4
2017-09-15T12:08:38.160Z,16.5
2017-09-15T12:09:39.737Z,16.4
2017-09-15T12:10:41.325Z,16.4
2017-09-15T12:11:43.027Z,16.4
2017-09-15T12:12:44.590Z,16.4
2017-09-15T12:13:46.114Z,16.4
2017-09-15T12:14:47.600Z,16.5
2017-09-15T12:15:49.051Z,16.4
2017-09-15T12:16:50.757Z,16.4
2017-09-15T12:17:52.348Z,16.5
2017-09-15T12:18:54.009Z,16.4
2017-09-15T12:19:55.628Z,16.4
2017-09-15T12:20:57.331Z,16.4
2017-09-15T12:21:58.880Z,16.4
2017-09-15T12:23:00.533Z,16.5
2017-09-15T12:24:02.051Z,16.4
2017-09-15T12:25:03.603Z,16.3
2017-09-15T12:26:05.165Z,16.4
2017-09-15T12:27:06.691Z,16.3
2017-09-15T12:28:08.309Z,16.3
2017-09-15T12:29:09.921Z,16.4
2017-09-15T12:30:11.416Z,16.5
2017-09-15T12:31:12.910Z,16.4
2017-09-15T12:32:14.403Z,16.4
2017-09-15T12:33:15.890Z,16.4
2017-09-15T12:34:17.360Z,16.5
2017-09-15T12:35:18.868Z,16.5
2017-09-15T12:36:20.382Z,16.5
2017-09-15T12:37:21.932Z,16.5
2017-09-15T12:38:23.488Z,16.6
2017-09-15T12:39:25.028Z,16.6
2017-09-15T12:40:26.580Z,16.6
2017-09-15T12:41:28.092Z,16.7
2017-09-15T12:42:29.650Z,16.7
2017-09-15T12:43:31.126Z,16.7
2017-09-15T12:44:32.605Z,16.7
2017-09-15T12:45:34.094Z,16.6
2017-09-15T12:46:35.606Z,16.7
2017-09-15T12:47:37.164Z,16.7
2017-09-15T12:48:38.648Z,16.7
2017-09-15T12:49:40.144Z,16.7
2017-09-15T12:50:41.597Z,16.7
2017-09-15T12:51:43.096Z,16.7
2017-09-15T12:52:44.598Z,16.8
2017-09-15T12:53:46.113Z,16.9
2017-09-15T12:54:47.561Z,16.8
2017-09-15T12:55:49.059Z,16.9
2017-09-15T12:56:50.540Z,16.8
2017-09-15T12:57:52.053Z,16.9
2017-09-15T12:58:53.632Z,16.9
2017-09-15T12:59:55.167Z,16.9
2017-09-15T13:00:56.679Z,16.9
2017-09-15T13:01:58.679Z,16.9
2017-09-15T13:03:00.209Z,16.8
2017-09-15T13:04:01.703Z,16.8
2017-09-15T13:05:03.197Z,16.8
2017-09-15T13:06:04.694Z,16.8
2017-09-15T13:07:06.174Z,16.8
2017-09-15T13:08:07.640Z,16.8
2017-09-15T13:09:09.097Z,16.9
2017-09-15T13:10:10.611Z,16.8
2017-09-15T13:11:12.104Z,16.9
2017-09-15T13:12:13.576Z,16.8
2017-09-15T13:13:15.076Z,16.9
2017-09-15T13:14:16.545Z,16.8
2017-09-15T13:15:18.071Z,16.8
2017-09-15T13:16:19.602Z,16.9
2017-09-15T13:17:21.113Z,16.8
2017-09-15T13:18:22.598Z,16.8
2017-09-15T13:19:24.099Z,16.9
2017-09-15T13:20:25.551Z,16.9
2017-09-15T13:21:27.024Z,17.0
2017-09-15T13:22:28.481Z,17.0
2017-09-15T13:23:29.896Z,17.0
2017-09-15T13:24:31.348Z,17.0
2017-09-15T13:25:32.822Z,17.0
2017-09-15T13:26:34.380Z,17.0
2017-09-15T13:27:35.846Z,17.0
2017-09-15T13:28:38.192Z,17.0
2017-09-15T13:29:39.627Z,17.0
2017-09-15T13:30:41.108Z,17.0
2017-09-15T13:31:42.573Z,17.0
2017-09-15T13:32:44.031Z,17.0
2017-09-15T13:33:45.528Z,17.0
2017-09-15T13:34:46.996Z,16.9
2017-09-15T13:35:48.503Z,16.9
2017-09-15T13:36:49.982Z,17.0
2017-09-15T13:37:51.520Z,17.0
2017-09-15T13:38:53.046Z,16.9
2017-09-15T13:39:54.553Z,16.9
2017-09-15T13:40:56.009Z,16.9